Time;durP1;ratioP1;P1;durP2;ratioP2;P2;SDS_P1;SDS_P2;PMS_P1;PMS_P2;Temp;Humidity;BMP_temperature;BMP_pressure;BME280_temperature;BME280_humidity;BME280_pressure;Samples;Min_cycle;Max_cycle;Signal;HPM_P1;HPM_P2
2022/09/02 00:01:45;;;;;;;2.43;1.00;;;14.20;90.10;;;;;;5086147;28;20205;-70
2022/09/02 00:04:14;;;;;;;3.90;1.20;;;14.10;90.20;;;;;;5081790;28;20201;-70
2022/09/02 00:06:44;;;;;;;1.47;0.83;;;14.20;90.40;;;;;;5094485;28;20676;-68
2022/09/02 00:09:13;;;;;;;3.43;1.43;;;14.10;90.50;;;;;;5093655;28;20207;-69
2022/09/02 00:11:42;;;;;;;1.67;1.10;;;14.10;90.80;;;;;;5093418;28;20251;-69
2022/09/02 00:14:12;;;;;;;3.10;1.20;;;14.10;90.60;;;;;;5091883;28;20211;-71
2022/09/02 00:16:41;;;;;;;4.93;1.10;;;14.10;90.60;;;;;;5091563;28;20216;-70
2022/09/02 00:19:09;;;;;;;1.43;1.17;;;14.00;90.70;;;;;;5093395;28;20240;-70
2022/09/02 00:21:36;;;;;;;2.43;1.20;;;14.00;90.80;;;;;;5092591;28;20212;-70
2022/09/02 00:24:06;;;;;;;1.60;1.30;;;14.00;91.00;;;;;;5091289;28;20204;-70
2022/09/02 00:26:33;;;;;;;2.63;1.00;;;14.00;91.00;;;;;;5092822;28;20211;-70
2022/09/02 00:29:00;;;;;;;2.50;1.10;;;13.90;91.10;;;;;;5092480;28;20192;-69
2022/09/02 00:31:28;;;;;;;1.30;1.00;;;13.90;91.20;;;;;;5090668;28;20217;-70
2022/09/02 00:33:55;;;;;;;1.97;1.33;;;13.90;91.30;;;;;;5085056;28;20233;-69
2022/09/02 00:36:22;;;;;;;1.40;0.90;;;13.80;91.30;;;;;;5086558;28;20228;-69
2022/09/02 00:38:48;;;;;;;1.90;1.20;;;13.80;91.40;;;;;;5092307;28;20232;-69
2022/09/02 00:41:20;;;;;;;2.53;1.00;;;13.80;91.60;;;;;;5091745;28;20687;-69
2022/09/02 00:43:50;;;;;;;1.93;0.87;;;13.70;91.60;;;;;;5091360;28;20626;-69
2022/09/02 00:46:19;;;;;;;1.10;1.00;;;13.70;91.70;;;;;;5092639;28;20208;-70
2022/09/02 00:48:48;;;;;;;2.63;0.80;;;13.60;91.80;;;;;;5090364;28;20219;-69
2022/09/02 00:51:16;;;;;;;2.90;1.13;;;13.60;91.90;;;;;;5090497;28;20546;-71
2022/09/02 00:53:46;;;;;;;1.13;1.03;;;13.60;92.00;;;;;;5091768;28;20212;-70
2022/09/02 00:56:19;;;;;;;1.43;0.90;;;13.60;92.00;;;;;;5092419;28;20204;-69
2022/09/02 00:58:47;;;;;;;1.23;0.60;;;13.50;92.10;;;;;;5091238;28;20227;-69
2022/09/02 01:01:14;;;;;;;0.83;0.77;;;13.60;92.30;;;;;;5083546;28;20208;-70
2022/09/02 01:03:41;;;;;;;1.33;0.97;;;13.50;92.20;;;;;;5090756;28;20632;-70
2022/09/02 01:06:10;;;;;;;1.53;1.10;;;13.50;92.30;;;;;;5078349;28;20205;-68
2022/09/02 01:08:38;;;;;;;2.93;1.00;;;13.40;92.30;;;;;;5091810;28;20212;-69
2022/09/02 01:11:05;;;;;;;2.83;1.07;;;13.50;92.50;;;;;;5091246;28;20211;-69
2022/09/02 01:13:38;;;;;;;1.20;0.87;;;13.40;92.50;;;;;;5096994;28;20247;-69
2022/09/02 01:16:11;;;;;;;1.33;1.10;;;13.40;92.60;;;;;;5090525;28;20200;-68
2022/09/02 01:18:39;;;;;;;1.47;1.07;;;13.40;92.80;;;;;;5090667;28;20251;-69
2022/09/02 01:21:06;;;;;;;2.27;0.80;;;13.40;92.90;;;;;;5091285;28;20205;-69
2022/09/02 01:23:35;;;;;;;1.33;1.10;;;13.40;92.90;;;;;;5090518;28;20228;-69
2022/09/02 01:26:03;;;;;;;4.37;0.80;;;13.40;93.00;;;;;;5089898;28;20212;-69
2022/09/02 01:28:32;;;;;;;1.03;0.80;;;13.40;93.10;;;;;;5091702;28;20199;-69
2022/09/02 01:31:00;;;;;;;1.50;1.03;;;13.40;93.20;;;;;;5101700;28;20218;-69
2022/09/02 01:33:27;;;;;;;1.20;1.00;;;13.40;93.30;;;;;;5091474;28;20197;-69
2022/09/02 01:35:54;;;;;;;2.37;1.40;;;13.40;93.50;;;;;;5090636;28;20239;-69
2022/09/02 01:38:23;;;;;;;1.17;1.07;;;13.40;93.40;;;;;;5077270;28;20228;-69
2022/09/02 01:40:51;;;;;;;3.17;1.10;;;13.40;93.50;;;;;;5089405;28;20205;-69
2022/09/02 01:43:21;;;;;;;1.93;0.93;;;13.40;93.70;;;;;;5090141;28;20257;-69
2022/09/02 01:45:51;;;;;;;1.73;1.17;;;13.40;93.70;;;;;;5089100;28;20204;-69
2022/09/02 01:48:18;;;;;;;1.93;0.87;;;13.50;93.70;;;;;;5090040;28;20215;-69
2022/09/02 01:50:49;;;;;;;1.43;1.03;;;13.40;93.70;;;;;;5090807;28;20200;-69
2022/09/02 01:53:16;;;;;;;2.47;1.00;;;13.40;93.70;;;;;;5091547;28;20539;-69
2022/09/02 01:55:43;;;;;;;2.10;0.80;;;13.40;93.70;;;;;;5075569;28;20625;-70
2022/09/02 01:58:11;;;;;;;2.13;0.80;;;13.40;93.80;;;;;;5092992;28;20215;-71
2022/09/02 02:00:38;;;;;;;2.67;1.00;;;13.50;94.00;;;;;;5094618;28;20574;-70
2022/09/02 02:03:05;;;;;;;1.20;1.00;;;13.40;94.20;;;;;;5095211;28;20371;-71
2022/09/02 02:05:32;;;;;;;3.70;1.10;;;13.40;94.20;;;;;;5091650;28;20732;-69
2022/09/02 02:07:59;;;;;;;2.57;1.10;;;13.50;94.40;;;;;;5094303;28;20879;-70
2022/09/02 02:10:26;;;;;;;1.57;1.00;;;13.50;94.40;;;;;;5094117;28;20637;-69
2022/09/02 02:12:52;;;;;;;1.70;0.93;;;13.50;94.30;;;;;;5093600;28;20228;-69
2022/09/02 02:15:21;;;;;;;5.33;1.10;;;13.40;94.20;;;;;;5093868;28;20208;-69
2022/09/02 02:17:48;;;;;;;4.40;1.10;;;13.50;94.30;;;;;;5095210;28;20216;-69
2022/09/02 02:20:17;;;;;;;3.87;0.80;;;13.40;94.30;;;;;;5094069;28;20232;-69
2022/09/02 02:22:44;;;;;;;2.40;1.13;;;13.30;94.40;;;;;;5094516;28;20627;-68
2022/09/02 02:25:14;;;;;;;2.13;1.00;;;13.30;94.50;;;;;;5094200;28;20295;-69
2022/09/02 02:27:40;;;;;;;1.30;0.97;;;13.30;94.50;;;;;;5094825;28;20204;-68
2022/09/02 02:30:09;;;;;;;1.10;1.00;;;13.30;94.60;;;;;;5094058;28;20283;-68
2022/09/02 02:32:37;;;;;;;2.17;1.20;;;13.30;94.70;;;;;;5103796;28;20211;-68
2022/09/02 02:35:05;;;;;;;2.70;0.90;;;13.20;94.90;;;;;;5106731;28;20204;-69
2022/09/02 02:37:32;;;;;;;1.53;1.07;;;13.30;95.10;;;;;;5095662;28;20611;-70
2022/09/02 02:39:58;;;;;;;1.27;0.97;;;13.20;95.30;;;;;;5094427;28;20228;-70
2022/09/02 02:42:25;;;;;;;1.70;1.20;;;13.20;95.40;;;;;;5104155;28;20679;-70
2022/09/02 02:44:52;;;;;;;1.67;1.33;;;13.20;95.40;;;;;;5099879;28;20211;-70
2022/09/02 02:47:19;;;;;;;1.17;0.90;;;13.30;95.60;;;;;;5094237;28;20226;-69
2022/09/02 02:49:47;;;;;;;1.23;0.80;;;13.20;95.70;;;;;;5080772;28;20197;-70
2022/09/02 02:52:14;;;;;;;1.17;1.07;;;13.20;95.80;;;;;;5094184;28;20672;-69
2022/09/02 02:54:41;;;;;;;2.10;0.87;;;13.20;95.70;;;;;;5093381;28;20211;-69
2022/09/02 02:57:09;;;;;;;1.13;1.00;;;13.20;95.80;;;;;;5093828;28;20204;-69
2022/09/02 02:59:36;;;;;;;1.27;1.00;;;13.20;95.90;;;;;;5104207;28;20519;-69
2022/09/02 03:02:04;;;;;;;0.90;0.90;;;13.20;96.00;;;;;;5097046;28;20638;-68
2022/09/02 03:04:30;;;;;;;1.80;1.20;;;13.10;96.00;;;;;;5093184;28;20569;-68
2022/09/02 03:06:59;;;;;;;3.73;1.27;;;13.20;96.00;;;;;;5094596;28;20226;-69
2022/09/02 03:09:26;;;;;;;1.73;1.23;;;13.10;96.00;;;;;;5093409;28;20201;-69
2022/09/02 03:11:52;;;;;;;2.57;1.00;;;13.10;96.00;;;;;;5094830;28;20234;-69
2022/09/02 03:14:19;;;;;;;4.33;1.10;;;13.00;95.80;;;;;;5096686;28;20572;-69
2022/09/02 03:16:46;;;;;;;1.27;1.07;;;13.00;95.90;;;;;;5104229;28;20215;-70
2022/09/02 03:19:13;;;;;;;1.80;1.33;;;12.90;96.00;;;;;;5091545;28;20227;-69
2022/09/02 03:21:40;;;;;;;3.33;2.27;;;12.90;96.20;;;;;;5092314;28;20225;-70
2022/09/02 03:24:10;;;;;;;2.40;1.50;;;12.90;96.30;;;;;;5106343;28;20610;-70
2022/09/02 03:26:36;;;;;;;1.07;0.93;;;12.80;96.40;;;;;;5092506;28;20196;-70
2022/09/02 03:29:04;;;;;;;2.87;1.40;;;12.80;96.60;;;;;;5092970;28;20201;-70
2022/09/02 03:31:31;;;;;;;3.13;1.40;;;12.80;96.70;;;;;;5101037;28;20200;-69
2022/09/02 03:33:58;;;;;;;1.60;1.30;;;12.80;96.90;;;;;;5092272;28;20208;-69
2022/09/02 03:36:27;;;;;;;1.70;1.07;;;12.80;97.10;;;;;;5090868;28;20264;-69
2022/09/02 03:38:54;;;;;;;3.20;1.30;;;12.70;97.70;;;;;;5091613;28;20234;-69
2022/09/02 03:41:22;;;;;;;2.87;1.37;;;12.70;97.70;;;;;;5093515;28;20208;-69
2022/09/02 03:43:50;;;;;;;4.07;1.37;;;12.70;97.80;;;;;;5077903;28;20205;-69
2022/09/02 03:46:17;;;;;;;1.20;1.10;;;12.70;98.00;;;;;;5085388;28;20204;-68
2022/09/02 03:48:44;;;;;;;3.87;1.30;;;12.70;98.30;;;;;;5092848;28;20216;-70
2022/09/02 03:51:12;;;;;;;3.93;1.43;;;12.70;98.50;;;;;;5093719;28;20557;-69
2022/09/02 03:53:39;;;;;;;1.50;1.30;;;12.70;98.80;;;;;;5091319;28;20696;-69
2022/09/02 03:56:06;;;;;;;1.43;1.33;;;12.70;98.70;;;;;;5093839;28;20575;-70
2022/09/02 03:58:36;;;;;;;3.80;1.87;;;12.70;98.90;;;;;;5093590;28;20679;-70
2022/09/02 04:01:04;;;;;;;4.93;1.60;;;12.70;99.10;;;;;;5094032;28;20668;-70
2022/09/02 04:03:31;;;;;;;3.73;1.60;;;12.60;99.10;;;;;;5091938;28;20212;-69
2022/09/02 04:05:59;;;;;;;2.73;1.30;;;12.70;99.20;;;;;;5094633;28;20600;-69
2022/09/02 04:08:26;;;;;;;3.30;1.50;;;12.70;99.30;;;;;;5093594;28;20219;-69
2022/09/02 04:10:55;;;;;;;3.83;1.40;;;12.70;99.30;;;;;;5091744;28;20197;-69
2022/09/02 04:13:22;;;;;;;3.30;1.63;;;12.80;99.40;;;;;;5092210;28;20231;-69
2022/09/02 04:15:50;;;;;;;3.13;1.40;;;12.70;99.40;;;;;;5091366;28;20288;-70
2022/09/02 04:18:17;;;;;;;2.40;1.40;;;12.70;99.50;;;;;;5092107;28;20210;-69
2022/09/02 04:20:45;;;;;;;3.17;1.60;;;12.70;99.60;;;;;;5102102;28;20308;-69
2022/09/02 04:23:12;;;;;;;3.37;1.20;;;12.70;99.90;;;;;;5092050;28;20225;-70
2022/09/02 04:25:40;;;;;;;4.10;1.47;;;12.70;99.80;;;;;;5089198;28;20221;-70
2022/09/02 04:28:08;;;;;;;4.77;1.23;;;12.70;99.90;;;;;;5091829;28;20209;-68
2022/09/02 04:30:35;;;;;;;6.83;1.50;;;12.70;99.90;;;;;;5092889;28;20203;-69
2022/09/02 04:33:03;;;;;;;5.57;1.50;;;12.70;99.90;;;;;;5091209;28;20696;-69
2022/09/02 04:35:30;;;;;;;3.23;1.43;;;12.70;99.90;;;;;;5091320;28;20209;-70
2022/09/02 04:37:56;;;;;;;1.60;1.30;;;12.80;99.90;;;;;;5092931;28;20200;-69
2022/09/02 04:40:23;;;;;;;2.13;1.37;;;12.80;99.90;;;;;;5091932;28;20228;-69
2022/09/02 04:42:52;;;;;;;3.77;1.60;;;12.80;99.90;;;;;;5091704;28;20566;-70
2022/09/02 04:45:19;;;;;;;3.67;1.40;;;12.80;99.90;;;;;;5086152;28;20219;-69
2022/09/02 04:47:46;;;;;;;3.80;1.60;;;12.90;99.90;;;;;;5092259;28;20248;-69
2022/09/02 04:50:15;;;;;;;2.93;1.80;;;12.90;99.90;;;;;;5105567;28;20205;-70
2022/09/02 04:52:42;;;;;;;5.07;2.33;;;13.00;99.90;;;;;;5090007;28;20213;-71
2022/09/02 04:55:10;;;;;;;4.13;1.80;;;13.10;99.90;;;;;;5089270;28;20235;-70
2022/09/02 04:57:37;;;;;;;3.27;1.80;;;13.10;99.90;;;;;;5092542;28;20215;-69
2022/09/02 05:00:05;;;;;;;3.43;1.50;;;13.10;99.90;;;;;;5090758;28;20453;-70
2022/09/02 05:02:32;;;;;;;3.90;1.73;;;13.20;99.90;;;;;;5080477;28;20290;-71
2022/09/02 05:04:59;;;;;;;3.50;1.70;;;13.20;99.90;;;;;;5089814;28;20208;-69
2022/09/02 05:07:27;;;;;;;2.30;1.50;;;13.10;99.90;;;;;;5091684;28;20208;-69
2022/09/02 05:09:57;;;;;;;1.87;1.40;;;13.20;99.90;;;;;;5102855;28;20211;-70
2022/09/02 05:12:26;;;;;;;4.03;1.50;;;13.20;99.90;;;;;;5092516;28;20645;-69
2022/09/02 05:14:54;;;;;;;4.23;1.60;;;13.20;99.90;;;;;;5089905;28;20231;-70
2022/09/02 05:17:21;;;;;;;5.00;1.60;;;13.30;99.90;;;;;;5102005;28;20656;-70
2022/09/02 05:19:48;;;;;;;4.27;1.57;;;13.30;99.90;;;;;;5095632;28;20228;-69
2022/09/02 05:22:15;;;;;;;4.30;1.53;;;13.40;99.90;;;;;;5095861;28;20755;-72
2022/09/02 05:24:43;;;;;;;3.07;1.47;;;13.50;99.90;;;;;;5091788;28;20223;-70
2022/09/02 05:27:11;;;;;;;3.23;1.47;;;13.60;99.90;;;;;;5092781;28;20213;-70
2022/09/02 05:29:38;;;;;;;3.13;1.47;;;13.60;99.90;;;;;;5090584;28;20201;-71
2022/09/02 05:32:06;;;;;;;6.23;1.73;;;13.70;99.90;;;;;;5088753;28;20215;-70
2022/09/02 05:34:34;;;;;;;2.67;1.70;;;13.80;99.90;;;;;;5093838;28;20670;-71
2022/09/02 05:37:01;;;;;;;5.57;1.70;;;13.90;99.90;;;;;;5097772;28;20228;-71
2022/09/02 05:39:29;;;;;;;3.83;1.70;;;14.00;99.90;;;;;;5105236;28;20231;-69
2022/09/02 05:41:58;;;;;;;3.87;1.43;;;14.10;99.80;;;;;;5100915;28;20522;-71
2022/09/02 05:44:24;;;;;;;3.77;1.50;;;14.10;99.70;;;;;;5096425;28;20240;-70
2022/09/02 05:46:51;;;;;;;5.80;1.53;;;14.20;99.70;;;;;;5102598;28;20215;-70
2022/09/02 05:49:20;;;;;;;2.80;1.60;;;14.20;99.60;;;;;;5097320;28;20289;-70
2022/09/02 05:51:49;;;;;;;2.90;1.67;;;14.30;99.50;;;;;;5101083;28;20664;-68
2022/09/02 05:54:19;;;;;;;3.53;1.47;;;14.30;99.50;;;;;;5102074;28;20208;-72
2022/09/02 05:56:52;;;;;;;4.23;1.50;;;14.40;99.50;;;;;;5108892;28;20223;-71
2022/09/02 05:59:21;;;;;;;2.50;1.37;;;14.40;99.50;;;;;;5109431;28;20653;-71
2022/09/02 06:01:49;;;;;;;1.17;1.07;;;14.50;99.40;;;;;;5108871;28;20200;-71
2022/09/02 06:04:16;;;;;;;1.90;1.10;;;14.60;99.50;;;;;;5100826;28;20201;-71
2022/09/02 06:06:43;;;;;;;6.70;1.30;;;14.60;99.50;;;;;;5094898;28;20218;-68
2022/09/02 06:09:15;;;;;;;2.07;1.40;;;14.80;99.90;;;;;;5090333;28;20200;-68
2022/09/02 06:11:44;;;;;;;2.47;1.10;;;14.90;99.40;;;;;;5094097;28;20201;-69
2022/09/02 06:14:11;;;;;;;1.93;1.50;;;15.00;99.20;;;;;;5090142;28;20204;-68
2022/09/02 06:16:40;;;;;;;5.27;1.40;;;15.00;99.30;;;;;;5099867;28;20215;-68
2022/09/02 06:19:07;;;;;;;1.77;1.40;;;15.10;99.20;;;;;;5091188;28;20204;-68
2022/09/02 06:21:36;;;;;;;2.63;1.70;;;15.10;99.10;;;;;;5103771;28;20208;-69
2022/09/02 06:24:05;;;;;;;5.37;1.80;;;15.20;98.90;;;;;;5099243;28;20207;-69
2022/09/02 06:26:31;;;;;;;2.07;1.30;;;15.20;98.90;;;;;;5106704;28;20287;-69
2022/09/02 06:28:58;;;;;;;3.17;1.53;;;15.20;98.90;;;;;;5092432;28;20554;-69
2022/09/02 06:31:26;;;;;;;5.27;1.40;;;15.20;98.80;;;;;;5096865;28;20230;-69
2022/09/02 06:33:56;;;;;;;4.17;1.37;;;15.20;98.80;;;;;;5095116;28;20390;-69
2022/09/02 06:36:25;;;;;;;2.83;1.47;;;15.20;98.80;;;;;;5106566;28;20569;-69
2022/09/02 06:38:53;;;;;;;3.20;1.20;;;15.20;98.90;;;;;;5089562;28;20204;-68
2022/09/02 06:41:23;;;;;;;2.83;1.40;;;15.20;98.90;;;;;;5095592;28;20224;-68
2022/09/02 06:43:51;;;;;;;2.93;1.23;;;15.20;98.90;;;;;;5093403;28;20271;-69
2022/09/02 06:46:20;;;;;;;2.47;1.10;;;15.20;98.90;;;;;;5093345;28;20205;-71
2022/09/02 06:48:48;;;;;;;6.50;1.40;;;15.20;98.60;;;;;;5105113;28;20215;-71
2022/09/02 06:51:18;;;;;;;2.07;1.20;;;15.20;98.80;;;;;;5096458;28;20299;-71
2022/09/02 06:53:45;;;;;;;2.73;1.13;;;15.30;98.80;;;;;;5096885;28;20208;-71
2022/09/02 06:56:12;;;;;;;1.00;0.90;;;15.40;98.90;;;;;;5098867;28;20234;-70
2022/09/02 06:58:39;;;;;;;5.60;1.60;;;15.50;98.60;;;;;;5105990;28;20340;-70
2022/09/02 07:01:06;;;;;;;8.77;1.50;;;15.50;98.50;;;;;;5094824;28;20232;-72
2022/09/02 07:06:20;;;;;;;4.20;1.57;;;15.80;98.60;;;;;;5096019;28;20258;-73
2022/09/02 07:08:47;;;;;;;3.33;1.60;;;15.80;98.10;;;;;;5100200;28;20286;-68
2022/09/02 07:11:17;;;;;;;4.27;2.53;;;15.90;98.20;;;;;;5092401;28;20209;-68
2022/09/02 07:13:44;;;;;;;6.57;1.60;;;16.00;98.30;;;;;;5092518;28;20215;-67
2022/09/02 07:16:11;;;;;;;3.20;2.40;;;16.20;98.20;;;;;;5090306;28;20204;-66
2022/09/02 07:18:38;;;;;;;2.80;1.40;;;16.30;97.20;;;;;;5090585;28;20205;-68
2022/09/02 07:21:08;;;;;;;2.97;1.47;;;16.30;96.90;;;;;;5084326;28;20692;-70
2022/09/02 07:23:36;;;;;;;4.43;1.45;;;16.40;96.80;;;;;;5084316;28;20232;-70
2022/09/02 07:26:03;;;;;;;4.10;1.45;;;16.50;96.80;;;;;;5082481;28;20205;-69
2022/09/02 07:28:30;;;;;;;7.73;1.50;;;16.60;97.10;;;;;;5083111;28;20196;-69
2022/09/02 07:30:56;;;;;;;5.10;1.40;;;16.80;97.30;;;;;;5082099;28;20208;-70
2022/09/02 07:33:23;;;;;;;3.17;1.33;;;17.10;97.10;;;;;;5082733;28;20212;-67
2022/09/02 07:35:51;;;;;;;5.50;1.20;;;17.20;96.60;;;;;;5083026;28;20228;-68
2022/09/02 07:38:18;;;;;;;4.32;1.55;;;17.40;95.60;;;;;;5091347;28;20205;-69
2022/09/02 07:40:47;;;;;;;3.15;1.38;;;17.40;94.70;;;;;;5091280;28;20228;-67
2022/09/02 07:43:14;;;;;;;9.07;1.45;;;17.40;94.50;;;;;;5092075;28;20570;-68
2022/09/02 07:45:42;;;;;;;6.30;1.10;;;17.50;94.50;;;;;;5086056;28;20220;-67
2022/09/02 07:48:09;;;;;;;9.13;1.48;;;17.60;94.60;;;;;;5086865;28;20208;-66
2022/09/02 07:50:36;;;;;;;4.70;1.38;;;17.80;94.40;;;;;;5092736;28;20215;-65
2022/09/02 07:53:06;;;;;;;4.55;1.20;;;18.00;93.70;;;;;;5091586;28;20212;-69
2022/09/02 07:55:33;;;;;;;4.50;1.02;;;18.10;93.40;;;;;;5092072;28;20287;-67
2022/09/02 07:58:02;;;;;;;2.25;0.93;;;18.20;93.00;;;;;;5087010;28;20196;-66
2022/09/02 08:00:29;;;;;;;2.92;1.10;;;18.20;92.00;;;;;;5087702;28;20584;-67
2022/09/02 08:02:56;;;;;;;4.03;1.42;;;18.40;91.60;;;;;;5087505;28;20204;-67
2022/09/02 08:05:23;;;;;;;7.88;1.33;;;18.50;91.40;;;;;;5089670;28;20586;-66
2022/09/02 08:07:50;;;;;;;3.85;1.13;;;18.60;91.50;;;;;;5091667;28;20262;-67
2022/09/02 08:10:19;;;;;;;3.00;1.00;;;18.70;91.70;;;;;;5094640;28;20197;-66
2022/09/02 08:12:46;;;;;;;11.07;1.23;;;18.90;91.20;;;;;;5097820;28;20579;-67
2022/09/02 08:15:15;;;;;;;2.85;1.23;;;19.10;90.80;;;;;;5098726;28;20200;-66
2022/09/02 08:17:43;;;;;;;3.40;2.03;;;19.30;90.30;;;;;;5087778;28;20669;-65
2022/09/02 08:20:11;;;;;;;7.43;1.38;;;19.50;88.10;;;;;;5096162;28;20621;-67
2022/09/02 08:22:38;;;;;;;1.17;0.93;;;19.60;85.30;;;;;;5091599;28;20281;-66
2022/09/02 08:25:07;;;;;;;0.60;0.60;;;19.70;84.20;;;;;;5091178;28;20204;-66
2022/09/02 08:27:34;;;;;;;1.30;0.80;;;19.70;82.30;;;;;;5091465;28;20258;-67
2022/09/02 08:30:01;;;;;;;2.13;0.70;;;19.80;82.50;;;;;;5088493;28;20200;-66
2022/09/02 08:32:31;;;;;;;2.97;0.85;;;20.10;82.40;;;;;;5089276;28;20204;-66
2022/09/02 08:35:01;;;;;;;2.78;0.90;;;20.10;78.90;;;;;;5088153;28;20303;-66
2022/09/02 08:37:30;;;;;;;3.88;0.82;;;20.20;78.90;;;;;;5077915;28;20228;-67
2022/09/02 08:39:57;;;;;;;1.42;1.02;;;20.50;79.50;;;;;;5090199;28;20223;-66
2022/09/02 08:42:31;;;;;;;1.75;1.08;;;20.50;77.30;;;;;;5090869;28;20216;-66
2022/09/02 08:45:00;;;;;;;6.93;1.15;;;20.50;76.50;;;;;;5088884;28;20207;-66
2022/09/02 08:47:32;;;;;;;2.25;0.90;;;20.60;77.30;;;;;;5089018;28;20680;-66
2022/09/02 08:50:03;;;;;;;1.52;0.75;;;20.80;76.90;;;;;;5090262;28;20608;-68
2022/09/02 08:52:36;;;;;;;1.75;0.73;;;20.80;72.40;;;;;;5091093;28;20208;-67
2022/09/02 08:55:05;;;;;;;1.90;0.80;;;20.90;69.30;;;;;;5089533;28;20212;-67
2022/09/02 08:57:32;;;;;;;1.73;0.70;;;20.90;71.20;;;;;;5089983;28;20205;-66
2022/09/02 09:00:01;;;;;;;2.88;0.60;;;21.10;71.10;;;;;;5089568;28;20204;-67
2022/09/02 09:02:40;;;;;;;1.95;0.80;;;21.20;70.60;;;;;;5081616;28;20229;-66
2022/09/02 09:05:21;;;;;;;3.13;0.80;;;21.40;70.70;;;;;;5083559;28;20635;-65
2022/09/02 09:07:59;;;;;;;0.45;0.45;;;21.70;69.50;;;;;;5090261;28;20201;-67
2022/09/02 09:10:35;;;;;;;1.05;0.43;;;22.00;67.60;;;;;;5089417;28;20192;-66
2022/09/02 09:13:18;;;;;;;4.55;0.82;;;22.30;66.40;;;;;;5085244;28;20660;-66
2022/09/02 09:15:53;;;;;;;2.88;0.80;;;22.50;64.30;;;;;;5090218;28;20196;-66
2022/09/02 09:18:29;;;;;;;6.43;1.13;;;22.60;62.20;;;;;;5089163;28;20212;-67
2022/09/02 09:20:56;;;;;;;1.52;0.85;;;22.60;63.30;;;;;;5088290;28;20211;-66
2022/09/02 09:23:29;;;;;;;0.80;0.63;;;23.00;62.70;;;;;;5088849;28;20228;-66
2022/09/02 09:26:04;;;;;;;0.88;0.50;;;23.30;60.80;;;;;;5088004;28;20232;-67
2022/09/02 09:28:31;;;;;;;3.58;0.70;;;23.50;59.10;;;;;;5090431;28;20202;-66
2022/09/02 09:31:00;;;;;;;0.75;0.45;;;23.80;58.20;;;;;;5088946;28;20208;-66
2022/09/02 09:33:28;;;;;;;1.17;0.68;;;24.10;57.60;;;;;;5084487;28;20213;-66
2022/09/02 09:35:57;;;;;;;1.38;0.75;;;24.40;57.10;;;;;;5088860;28;20244;-67
2022/09/02 09:38:35;;;;;;;1.50;0.50;;;24.80;56.20;;;;;;5086148;28;20216;-66
2022/09/02 09:41:14;;;;;;;4.30;0.60;;;25.30;56.40;;;;;;5089004;28;20227;-67
2022/09/02 09:43:41;;;;;;;4.95;0.70;;;25.60;54.90;;;;;;5091054;28;20212;-66
2022/09/02 09:46:24;;;;;;;0.77;0.50;;;25.90;54.40;;;;;;5090211;28;20622;-66
2022/09/02 09:48:53;;;;;;;4.43;0.52;;;26.00;51.90;;;;;;5088142;28;20204;-65
2022/09/02 09:51:20;;;;;;;1.55;0.50;;;25.70;50.40;;;;;;5088015;28;20235;-65
2022/09/02 09:53:47;;;;;;;6.32;0.75;;;25.50;50.90;;;;;;5084643;28;20208;-64
2022/09/02 09:56:33;;;;;;;0.80;0.50;;;25.60;52.20;;;;;;5082337;28;20217;-64
2022/09/02 09:59:00;;;;;;;3.53;0.82;;;25.90;51.50;;;;;;5087010;28;20196;-66
2022/09/02 10:01:30;;;;;;;0.68;0.65;;;26.30;50.80;;;;;;5087053;28;20231;-65
2022/09/02 10:04:01;;;;;;;5.55;1.10;;;26.70;50.40;;;;;;5084735;28;20295;-66
2022/09/02 10:06:39;;;;;;;2.22;0.40;;;27.00;49.30;;;;;;5099493;28;20559;-66
2022/09/02 10:09:15;;;;;;;2.40;1.25;;;27.10;48.00;;;;;;5088024;28;20271;-65
2022/09/02 10:11:55;;;;;;;2.08;0.40;;;27.00;46.40;;;;;;5088724;28;20919;-65
2022/09/02 10:14:22;;;;;;;1.55;0.47;;;26.50;46.00;;;;;;5088453;28;20200;-66
2022/09/02 10:17:01;;;;;;;0.52;0.50;;;26.10;46.20;;;;;;5089823;28;20622;-66
2022/09/02 10:19:37;;;;;;;0.93;0.57;;;25.80;46.00;;;;;;5091610;28;20204;-66
2022/09/02 10:22:28;;;;;;;1.55;0.60;;;25.40;46.90;;;;;;5081142;28;20674;-65
2022/09/02 10:25:08;;;;;;;2.15;0.60;;;25.60;48.10;;;;;;5086842;28;20216;-66
2022/09/02 10:27:49;;;;;;;0.52;0.50;;;26.20;48.50;;;;;;5091723;28;20207;-67
2022/09/02 10:30:20;;;;;;;2.13;0.57;;;27.00;47.90;;;;;;5092094;28;20209;-65
2022/09/02 10:33:10;;;;;;;1.42;0.68;;;27.50;46.40;;;;;;5091299;28;20662;-65
2022/09/02 10:35:43;;;;;;;0.52;0.40;;;27.40;44.70;;;;;;5089198;28;20197;-67
2022/09/02 10:38:20;;;;;;;0.88;0.60;;;27.20;44.80;;;;;;5084107;28;20200;-65
2022/09/02 10:40:55;;;;;;;0.52;0.35;;;26.90;45.00;;;;;;5089977;28;20219;-67
2022/09/02 10:43:34;;;;;;;1.35;0.60;;;26.80;44.80;;;;;;5091446;28;20203;-66
2022/09/02 10:53:09;;;;;;;0.60;0.60;;;26.70;44.00;;;;;;5087514;28;20271;-67
2022/09/02 10:55:49;;;;;;;0.50;0.30;;;26.40;43.80;;;;;;5088569;28;20197;-65
2022/09/02 10:58:22;;;;;;;4.05;0.40;;;26.10;42.20;;;;;;5095133;28;20196;-67
2022/09/02 11:00:53;;;;;;;2.20;0.60;;;26.10;43.50;;;;;;5088395;28;20205;-65
2022/09/02 11:03:25;;;;;;;1.88;0.45;;;26.10;44.00;;;;;;5081139;28;20215;-66
2022/09/02 11:05:56;;;;;;;3.75;0.68;;;26.20;44.70;;;;;;5089985;28;20204;-66
2022/09/02 11:08:32;;;;;;;1.52;0.57;;;26.30;44.80;;;;;;5088159;28;20236;-67
2022/09/02 11:11:05;;;;;;;0.43;0.43;;;26.50;44.20;;;;;;5093530;28;20200;-66
2022/09/02 11:13:38;;;;;;;0.90;0.70;;;26.50;44.20;;;;;;5092546;28;20645;-66
2022/09/02 11:16:14;;;;;;;0.40;0.40;;;26.60;44.20;;;;;;5093847;28;20223;-66
2022/09/02 11:18:50;;;;;;;2.80;0.70;;;26.70;44.00;;;;;;5090517;28;20215;-65
2022/09/02 11:21:28;;;;;;;1.38;0.73;;;26.70;43.30;;;;;;5094204;28;20227;-67
2022/09/02 11:24:04;;;;;;;1.23;0.90;;;26.50;42.90;;;;;;5093188;28;20250;-67
2022/09/02 11:26:37;;;;;;;0.82;0.73;;;26.40;43.20;;;;;;5093069;28;20200;-66
2022/09/02 11:29:10;;;;;;;2.20;0.45;;;26.50;43.60;;;;;;5092879;28;20258;-68
2022/09/02 11:31:42;;;;;;;0.40;0.40;;;26.60;43.10;;;;;;5091021;28;20610;-69
2022/09/02 11:34:19;;;;;;;1.65;0.68;;;26.70;42.00;;;;;;5091962;28;20204;-69
2022/09/02 11:36:47;;;;;;;1.40;0.63;;;26.80;42.10;;;;;;5096606;28;20235;-68
2022/09/02 11:39:20;;;;;;;1.85;0.50;;;27.00;42.20;;;;;;5091925;28;20208;-69
2022/09/02 11:42:04;;;;;;;5.85;0.70;;;27.40;42.80;;;;;;5091914;28;20217;-68
2022/09/02 11:45:06;;;;;;;0.35;0.35;;;27.50;42.50;;;;;;5092455;28;20200;-65
2022/09/02 11:48:06;;;;;;;1.08;0.60;;;27.40;42.00;;;;;;5092963;28;20218;-68
2022/09/02 11:50:53;;;;;;;1.83;0.70;;;27.30;42.40;;;;;;5070302;28;20263;-68
2022/09/02 11:53:24;;;;;;;1.02;0.80;;;27.50;42.30;;;;;;5087191;28;20494;-66
2022/09/02 11:55:56;;;;;;;1.55;0.47;;;27.50;41.90;;;;;;5093437;28;20603;-66
2022/09/02 11:58:35;;;;;;;0.30;0.30;;;27.30;41.40;;;;;;5095841;28;20196;-67
2022/09/02 12:01:23;;;;;;;3.55;0.73;;;27.30;42.10;;;;;;5091973;28;20200;-67
2022/09/02 12:03:55;;;;;;;1.35;0.50;;;27.60;42.70;;;;;;5092094;28;20211;-69
2022/09/02 12:06:22;;;;;;;2.60;0.70;;;28.20;42.30;;;;;;5098877;28;20246;-67
2022/09/02 12:09:10;;;;;;;0.80;0.55;;;28.50;41.20;;;;;;5095339;28;20344;-67
2022/09/02 12:11:44;;;;;;;2.05;0.68;;;28.30;40.90;;;;;;5097600;28;20616;-67
2022/09/02 12:14:32;;;;;;;2.10;0.63;;;28.20;41.20;;;;;;5091321;28;20208;-66
2022/09/02 12:17:02;;;;;;;0.50;0.47;;;28.00;41.10;;;;;;5096798;28;20235;-66
2022/09/02 12:19:41;;;;;;;0.50;0.50;;;27.80;40.70;;;;;;5099926;28;20253;-66
2022/09/02 12:22:27;;;;;;;1.50;0.90;;;27.70;41.60;;;;;;5105442;28;20234;-67
2022/09/02 12:24:55;;;;;;;3.08;0.63;;;27.60;41.80;;;;;;5098511;28;20227;-68
2022/09/02 12:27:26;;;;;;;0.63;0.50;;;27.40;42.20;;;;;;5083330;28;20205;-68
2022/09/02 12:29:54;;;;;;;1.42;0.70;;;27.50;42.50;;;;;;5090110;28;20200;-68
2022/09/02 12:33:02;;;;;;;1.73;0.60;;;27.70;41.90;;;;;;5086062;28;20216;-68
2022/09/02 12:35:50;;;;;;;0.70;0.60;;;27.60;41.90;;;;;;5079718;28;20557;-67
2022/09/02 12:38:32;;;;;;;1.77;0.47;;;27.50;41.80;;;;;;5090581;28;20232;-68
2022/09/02 12:41:28;;;;;;;0.60;0.50;;;27.30;42.30;;;;;;5089719;28;20205;-68
2022/09/02 12:44:05;;;;;;;1.75;0.50;;;27.20;41.90;;;;;;5090279;28;20200;-67
2022/09/02 12:46:46;;;;;;;1.00;0.40;;;27.30;41.70;;;;;;5096260;28;20288;-68
2022/09/02 12:49:36;;;;;;;0.90;0.38;;;27.20;41.60;;;;;;5088659;28;20200;-68
2022/09/02 12:52:05;;;;;;;3.17;0.38;;;27.00;41.40;;;;;;5106662;28;20641;-67
2022/09/02 12:54:41;;;;;;;1.92;0.77;;;27.00;40.90;;;;;;5087986;28;20452;-68
2022/09/02 12:57:09;;;;;;;0.90;0.55;;;26.90;41.20;;;;;;5083131;28;20208;-67
2022/09/02 12:59:40;;;;;;;1.85;0.57;;;27.30;41.40;;;;;;5089144;28;20375;-67
2022/09/02 13:02:34;;;;;;;1.20;0.52;;;27.50;41.30;;;;;;5087419;28;20879;-67
2022/09/02 13:05:14;;;;;;;3.13;0.70;;;27.60;41.50;;;;;;5084321;28;20555;-67
2022/09/02 13:08:10;;;;;;;0.90;0.60;;;28.00;41.40;;;;;;5073812;28;20250;-67
2022/09/02 13:11:21;;;;;;;0.98;0.55;;;28.30;41.70;;;;;;5086834;28;20339;-67
2022/09/02 13:14:24;;;;;;;1.30;0.52;;;28.20;40.70;;;;;;5087055;28;20642;-67
2022/09/02 13:17:04;;;;;;;1.05;0.60;;;28.20;41.00;;;;;;5082171;28;20212;-67